Terminal Aerodrome Forecast
Issued by NWS Wilmington, OH

Current Version | Previous Version | Graphics & Text | Print | Product List | Glossary On
Versions: 1 2 3 4 5 6 7 8 9 10 11 12 13 14 15 16 17 18 19 20 21 22 23
000
FTUS41 KILN 282300
TAFILN
TAF
KILN 282337Z 0100/0124 08005KT P6SM OVC080
     FM010500 12005KT 4SM -SN BKN025 OVC050
     FM010800 15005KT 5SM -SN BR OVC030
      TEMPO 0110/0114 2SM -FZRASNPL BR OVC015
     FM011400 21006KT 2SM -SN OVC015
      TEMPO 0115/0118 1SM -SNRA BR OVC008
     FM011800 23006KT 4SM -RASN OVC015
      TEMPO 0121/0124 1SM -SN OVC008=

USA.gov is the U.S. government's official web portal to all federal, state and local government web resources and services.